Chattanooga, Oklahoma
Current Conditions -  °F | °C
As of 11:53 PM on Monday 26 Jan 2015 (Local Time) from KLAW Reporting Station
Clear Clear  
Wind Chill: 44°   Ceiling: Unl
Heat Index: 47°   Visibility: 10mi
Dew Point: 34°   Wind: 6mph
Humidity: 61%   Direction: 290°WNW
Pressure: 30.1"   Gusts: NA
Location:  34.42°N, 98.66°W
Report Text: KLAW 270553Z AUTO 29005KT 10SM CLR 08/01 A3010 RMK AO2 SLP191 T00830011 10211 20061 402611028 53007
Loading
Personal Weather Stations






























Interactive Weather Map New forecast layout! Learn more

10-Day Weather Forecast

Advertisements
Track Severe Weather on mobile